sensor_id;sensor_type;location;lat;lon;timestamp;P1;durP1;ratioP1;P2;durP2;ratioP2
69327;SDS011;56472;52.114;5.492;2023-04-24T00:01:08;1.33;;;1.00;;
69327;SDS011;56472;52.114;5.492;2023-04-24T00:03:35;1.02;;;1.02;;
69327;SDS011;56472;52.114;5.492;2023-04-24T00:06:03;1.60;;;1.50;;
69327;SDS011;56472;52.114;5.492;2023-04-24T00:08:31;3.25;;;1.58;;
69327;SDS011;56472;52.114;5.492;2023-04-24T00:10:58;1.85;;;1.63;;
69327;SDS011;56472;52.114;5.492;2023-04-24T00:13:25;3.33;;;1.80;;
69327;SDS011;56472;52.114;5.492;2023-04-24T00:15:55;7.03;;;2.70;;
69327;SDS011;56472;52.114;5.492;2023-04-24T00:18:22;3.28;;;2.97;;
69327;SDS011;56472;52.114;5.492;2023-04-24T00:20:49;3.30;;;3.13;;
69327;SDS011;56472;52.114;5.492;2023-04-24T00:23:15;3.28;;;2.92;;
69327;SDS011;56472;52.114;5.492;2023-04-24T00:25:42;7.15;;;3.97;;
69327;SDS011;56472;52.114;5.492;2023-04-24T00:28:09;3.75;;;3.40;;
69327;SDS011;56472;52.114;5.492;2023-04-24T00:30:36;3.33;;;3.13;;
69327;SDS011;56472;52.114;5.492;2023-04-24T00:33:03;3.63;;;3.33;;
69327;SDS011;56472;52.114;5.492;2023-04-24T00:35:31;2.88;;;2.78;;
69327;SDS011;56472;52.114;5.492;2023-04-24T00:37:58;3.78;;;3.58;;
69327;SDS011;56472;52.114;5.492;2023-04-24T00:40:24;3.25;;;3.05;;
69327;SDS011;56472;52.114;5.492;2023-04-24T00:42:54;5.57;;;3.45;;
69327;SDS011;56472;52.114;5.492;2023-04-24T00:45:22;6.13;;;3.42;;
69327;SDS011;56472;52.114;5.492;2023-04-24T00:47:48;3.20;;;2.90;;
69327;SDS011;56472;52.114;5.492;2023-04-24T00:50:18;4.35;;;2.95;;
69327;SDS011;56472;52.114;5.492;2023-04-24T00:52:47;3.22;;;3.05;;
69327;SDS011;56472;52.114;5.492;2023-04-24T00:55:14;7.20;;;3.80;;
69327;SDS011;56472;52.114;5.492;2023-04-24T00:57:42;3.70;;;3.40;;
69327;SDS011;56472;52.114;5.492;2023-04-24T01:00:11;4.30;;;3.42;;
69327;SDS011;56472;52.114;5.492;2023-04-24T01:02:39;4.88;;;3.53;;
69327;SDS011;56472;52.114;5.492;2023-04-24T01:05:11;3.53;;;3.23;;
69327;SDS011;56472;52.114;5.492;2023-04-24T01:07:39;4.50;;;4.10;;
69327;SDS011;56472;52.114;5.492;2023-04-24T01:12:39;6.18;;;5.32;;
69327;SDS011;56472;52.114;5.492;2023-04-24T01:15:06;5.15;;;4.85;;
69327;SDS011;56472;52.114;5.492;2023-04-24T01:17:34;6.82;;;4.97;;
69327;SDS011;56472;52.114;5.492;2023-04-24T01:20:02;6.75;;;4.70;;
69327;SDS011;56472;52.114;5.492;2023-04-24T01:22:33;5.25;;;4.85;;
69327;SDS011;56472;52.114;5.492;2023-04-24T01:25:01;5.32;;;4.65;;
69327;SDS011;56472;52.114;5.492;2023-04-24T01:27:29;8.52;;;5.20;;
69327;SDS011;56472;52.114;5.492;2023-04-24T01:29:56;5.85;;;5.40;;
69327;SDS011;56472;52.114;5.492;2023-04-24T01:32:23;6.18;;;5.68;;
69327;SDS011;56472;52.114;5.492;2023-04-24T01:34:51;7.22;;;5.57;;
69327;SDS011;56472;52.114;5.492;2023-04-24T01:37:18;7.00;;;5.55;;
69327;SDS011;56472;52.114;5.492;2023-04-24T01:39:45;10.63;;;6.82;;
69327;SDS011;56472;52.114;5.492;2023-04-24T01:42:12;6.97;;;5.70;;
69327;SDS011;56472;52.114;5.492;2023-04-24T01:44:41;7.38;;;5.88;;
69327;SDS011;56472;52.114;5.492;2023-04-24T01:47:08;6.82;;;6.22;;
69327;SDS011;56472;52.114;5.492;2023-04-24T01:49:35;7.70;;;6.63;;
69327;SDS011;56472;52.114;5.492;2023-04-24T01:52:04;8.02;;;7.32;;
69327;SDS011;56472;52.114;5.492;2023-04-24T01:54:31;9.63;;;7.15;;
69327;SDS011;56472;52.114;5.492;2023-04-24T01:56:58;13.60;;;8.10;;
69327;SDS011;56472;52.114;5.492;2023-04-24T01:59:27;8.63;;;7.70;;
69327;SDS011;56472;52.114;5.492;2023-04-24T02:01:54;7.85;;;7.05;;
69327;SDS011;56472;52.114;5.492;2023-04-24T02:04:21;6.90;;;6.13;;
69327;SDS011;56472;52.114;5.492;2023-04-24T02:06:48;5.10;;;4.70;;
69327;SDS011;56472;52.114;5.492;2023-04-24T02:09:15;5.80;;;5.03;;
69327;SDS011;56472;52.114;5.492;2023-04-24T02:11:42;4.63;;;4.05;;
69327;SDS011;56472;52.114;5.492;2023-04-24T02:14:09;3.60;;;3.40;;
69327;SDS011;56472;52.114;5.492;2023-04-24T02:16:38;3.40;;;3.13;;
69327;SDS011;56472;52.114;5.492;2023-04-24T02:19:06;5.65;;;3.70;;
69327;SDS011;56472;52.114;5.492;2023-04-24T02:21:33;4.68;;;4.13;;
69327;SDS011;56472;52.114;5.492;2023-04-24T02:24:00;5.20;;;4.85;;
69327;SDS011;56472;52.114;5.492;2023-04-24T02:26:27;5.38;;;4.90;;
69327;SDS011;56472;52.114;5.492;2023-04-24T02:28:54;6.18;;;5.68;;
69327;SDS011;56472;52.114;5.492;2023-04-24T02:31:21;5.85;;;5.35;;
69327;SDS011;56472;52.114;5.492;2023-04-24T02:33:48;6.50;;;5.85;;
69327;SDS011;56472;52.114;5.492;2023-04-24T02:36:15;5.55;;;5.05;;
69327;SDS011;56472;52.114;5.492;2023-04-24T02:38:42;5.72;;;5.22;;
69327;SDS011;56472;52.114;5.492;2023-04-24T02:41:08;6.22;;;5.65;;
69327;SDS011;56472;52.114;5.492;2023-04-24T02:43:36;5.72;;;5.22;;
69327;SDS011;56472;52.114;5.492;2023-04-24T02:46:02;6.32;;;5.60;;
69327;SDS011;56472;52.114;5.492;2023-04-24T02:48:30;6.07;;;5.53;;
69327;SDS011;56472;52.114;5.492;2023-04-24T02:50:56;7.95;;;5.93;;
69327;SDS011;56472;52.114;5.492;2023-04-24T02:53:24;6.70;;;6.10;;
69327;SDS011;56472;52.114;5.492;2023-04-24T02:55:51;7.18;;;6.55;;
69327;SDS011;56472;52.114;5.492;2023-04-24T02:58:18;6.65;;;6.05;;
69327;SDS011;56472;52.114;5.492;2023-04-24T03:00:46;7.00;;;6.13;;
69327;SDS011;56472;52.114;5.492;2023-04-24T03:03:13;7.03;;;6.32;;
69327;SDS011;56472;52.114;5.492;2023-04-24T03:05:41;6.32;;;5.43;;
69327;SDS011;56472;52.114;5.492;2023-04-24T03:08:08;6.32;;;5.72;;
69327;SDS011;56472;52.114;5.492;2023-04-24T03:10:36;5.93;;;5.32;;
69327;SDS011;56472;52.114;5.492;2023-04-24T03:13:03;6.30;;;5.45;;
69327;SDS011;56472;52.114;5.492;2023-04-24T03:15:30;6.55;;;5.95;;
69327;SDS011;56472;52.114;5.492;2023-04-24T03:17:57;5.28;;;4.88;;
69327;SDS011;56472;52.114;5.492;2023-04-24T03:20:24;7.18;;;5.63;;
69327;SDS011;56472;52.114;5.492;2023-04-24T03:22:52;6.03;;;5.50;;
69327;SDS011;56472;52.114;5.492;2023-04-24T03:25:19;6.15;;;5.65;;
69327;SDS011;56472;52.114;5.492;2023-04-24T03:27:46;6.63;;;6.03;;
69327;SDS011;56472;52.114;5.492;2023-04-24T03:30:23;8.55;;;6.30;;
69327;SDS011;56472;52.114;5.492;2023-04-24T03:32:55;8.70;;;6.47;;
69327;SDS011;56472;52.114;5.492;2023-04-24T03:35:26;8.38;;;6.90;;
69327;SDS011;56472;52.114;5.492;2023-04-24T03:37:53;12.15;;;7.25;;
69327;SDS011;56472;52.114;5.492;2023-04-24T03:40:49;7.28;;;6.57;;
69327;SDS011;56472;52.114;5.492;2023-04-24T03:43:48;7.82;;;6.75;;
69327;SDS011;56472;52.114;5.492;2023-04-24T03:46:16;6.95;;;6.25;;
69327;SDS011;56472;52.114;5.492;2023-04-24T03:48:49;6.82;;;6.00;;
69327;SDS011;56472;52.114;5.492;2023-04-24T03:51:18;6.80;;;6.10;;
69327;SDS011;56472;52.114;5.492;2023-04-24T03:53:48;5.50;;;5.00;;
69327;SDS011;56472;52.114;5.492;2023-04-24T03:56:18;5.05;;;4.55;;
69327;SDS011;56472;52.114;5.492;2023-04-24T03:58:46;4.45;;;3.90;;
69327;SDS011;56472;52.114;5.492;2023-04-24T04:01:14;4.95;;;4.30;;
69327;SDS011;56472;52.114;5.492;2023-04-24T04:04:08;5.18;;;4.18;;
69327;SDS011;56472;52.114;5.492;2023-04-24T04:06:36;7.85;;;4.22;;
69327;SDS011;56472;52.114;5.492;2023-04-24T04:09:05;4.20;;;3.80;;
69327;SDS011;56472;52.114;5.492;2023-04-24T04:11:34;4.32;;;3.92;;
69327;SDS011;56472;52.114;5.492;2023-04-24T04:14:01;3.60;;;3.40;;
69327;SDS011;56472;52.114;5.492;2023-04-24T04:16:30;4.57;;;3.60;;
69327;SDS011;56472;52.114;5.492;2023-04-24T04:19:01;3.97;;;3.67;;
69327;SDS011;56472;52.114;5.492;2023-04-24T04:21:29;4.18;;;3.88;;
69327;SDS011;56472;52.114;5.492;2023-04-24T04:24:08;4.63;;;4.22;;
69327;SDS011;56472;52.114;5.492;2023-04-24T04:26:40;5.13;;;4.20;;
69327;SDS011;56472;52.114;5.492;2023-04-24T04:29:09;4.45;;;4.05;;
69327;SDS011;56472;52.114;5.492;2023-04-24T04:31:40;4.75;;;4.28;;
69327;SDS011;56472;52.114;5.492;2023-04-24T04:34:10;4.32;;;3.92;;
69327;SDS011;56472;52.114;5.492;2023-04-24T04:36:40;4.05;;;3.75;;
69327;SDS011;56472;52.114;5.492;2023-04-24T04:39:20;4.15;;;3.85;;
69327;SDS011;56472;52.114;5.492;2023-04-24T04:41:55;4.93;;;3.70;;
69327;SDS011;56472;52.114;5.492;2023-04-24T04:44:27;3.65;;;3.45;;
69327;SDS011;56472;52.114;5.492;2023-04-24T04:46:56;5.05;;;3.55;;
69327;SDS011;56472;52.114;5.492;2023-04-24T04:49:26;3.60;;;3.22;;
69327;SDS011;56472;52.114;5.492;2023-04-24T04:51:55;4.50;;;3.33;;
69327;SDS011;56472;52.114;5.492;2023-04-24T04:54:24;3.65;;;3.33;;
69327;SDS011;56472;52.114;5.492;2023-04-24T04:56:51;4.38;;;3.80;;
69327;SDS011;56472;52.114;5.492;2023-04-24T04:59:18;6.60;;;3.10;;
69327;SDS011;56472;52.114;5.492;2023-04-24T05:01:47;6.40;;;4.25;;
69327;SDS011;56472;52.114;5.492;2023-04-24T05:04:15;4.07;;;3.78;;
69327;SDS011;56472;52.114;5.492;2023-04-24T05:06:43;4.20;;;3.58;;
69327;SDS011;56472;52.114;5.492;2023-04-24T05:09:10;7.47;;;4.72;;
69327;SDS011;56472;52.114;5.492;2023-04-24T05:11:43;7.25;;;4.40;;
69327;SDS011;56472;52.114;5.492;2023-04-24T05:14:10;5.88;;;4.82;;
69327;SDS011;56472;52.114;5.492;2023-04-24T05:16:39;5.78;;;4.85;;
69327;SDS011;56472;52.114;5.492;2023-04-24T05:19:08;4.95;;;4.47;;
69327;SDS011;56472;52.114;5.492;2023-04-24T05:21:38;4.72;;;4.32;;
69327;SDS011;56472;52.114;5.492;2023-04-24T05:24:06;4.63;;;4.22;;
69327;SDS011;56472;52.114;5.492;2023-04-24T05:26:59;6.32;;;5.22;;
69327;SDS011;56472;52.114;5.492;2023-04-24T05:29:32;8.40;;;5.88;;
69327;SDS011;56472;52.114;5.492;2023-04-24T05:31:59;7.65;;;5.78;;
69327;SDS011;56472;52.114;5.492;2023-04-24T05:34:28;6.50;;;5.88;;
69327;SDS011;56472;52.114;5.492;2023-04-24T05:36:56;11.38;;;5.30;;
69327;SDS011;56472;52.114;5.492;2023-04-24T05:39:23;5.45;;;4.50;;
69327;SDS011;56472;52.114;5.492;2023-04-24T05:41:52;5.28;;;4.80;;
69327;SDS011;56472;52.114;5.492;2023-04-24T05:44:19;6.10;;;4.60;;
69327;SDS011;56472;52.114;5.492;2023-04-24T05:46:46;4.40;;;4.00;;
69327;SDS011;56472;52.114;5.492;2023-04-24T05:49:14;6.50;;;4.72;;
69327;SDS011;56472;52.114;5.492;2023-04-24T05:51:42;9.00;;;5.60;;
69327;SDS011;56472;52.114;5.492;2023-04-24T05:54:09;7.07;;;5.18;;
69327;SDS011;56472;52.114;5.492;2023-04-24T05:56:38;5.82;;;5.28;;
69327;SDS011;56472;52.114;5.492;2023-04-24T06:01:37;6.63;;;5.40;;
69327;SDS011;56472;52.114;5.492;2023-04-24T06:04:10;6.68;;;5.20;;
69327;SDS011;56472;52.114;5.492;2023-04-24T06:06:40;5.20;;;4.70;;
69327;SDS011;56472;52.114;5.492;2023-04-24T06:09:08;7.00;;;5.00;;
69327;SDS011;56472;52.114;5.492;2023-04-24T06:11:35;6.13;;;4.72;;
69327;SDS011;56472;52.114;5.492;2023-04-24T06:14:02;10.85;;;5.50;;
69327;SDS011;56472;52.114;5.492;2023-04-24T06:16:40;7.88;;;4.55;;
69327;SDS011;56472;52.114;5.492;2023-04-24T06:19:21;4.65;;;3.55;;
69327;SDS011;56472;52.114;5.492;2023-04-24T06:21:48;3.47;;;3.05;;
69327;SDS011;56472;52.114;5.492;2023-04-24T06:24:15;3.90;;;2.65;;
69327;SDS011;56472;52.114;5.492;2023-04-24T06:26:42;6.95;;;2.72;;
69327;SDS011;56472;52.114;5.492;2023-04-24T06:29:09;2.90;;;2.63;;
69327;SDS011;56472;52.114;5.492;2023-04-24T06:31:36;3.80;;;2.90;;
69327;SDS011;56472;52.114;5.492;2023-04-24T06:34:03;2.50;;;2.30;;
69327;SDS011;56472;52.114;5.492;2023-04-24T06:36:30;5.03;;;2.10;;
69327;SDS011;56472;52.114;5.492;2023-04-24T06:38:58;6.28;;;1.77;;
69327;SDS011;56472;52.114;5.492;2023-04-24T06:41:25;1.80;;;1.30;;
69327;SDS011;56472;52.114;5.492;2023-04-24T06:43:52;5.72;;;1.17;;
69327;SDS011;56472;52.114;5.492;2023-04-24T06:46:19;1.63;;;1.00;;
69327;SDS011;56472;52.114;5.492;2023-04-24T06:48:48;1.60;;;1.50;;
69327;SDS011;56472;52.114;5.492;2023-04-24T06:51:16;5.63;;;2.30;;
69327;SDS011;56472;52.114;5.492;2023-04-24T06:53:44;11.02;;;4.60;;
69327;SDS011;56472;52.114;5.492;2023-04-24T06:56:13;9.43;;;5.75;;
69327;SDS011;56472;52.114;5.492;2023-04-24T06:58:40;10.25;;;6.90;;
69327;SDS011;56472;52.114;5.492;2023-04-24T07:01:08;14.07;;;8.23;;
69327;SDS011;56472;52.114;5.492;2023-04-24T07:03:34;14.00;;;9.60;;
69327;SDS011;56472;52.114;5.492;2023-04-24T07:06:02;17.30;;;10.98;;
69327;SDS011;56472;52.114;5.492;2023-04-24T07:08:29;18.42;;;10.93;;
69327;SDS011;56472;52.114;5.492;2023-04-24T07:10:59;20.10;;;10.60;;
69327;SDS011;56472;52.114;5.492;2023-04-24T07:13:26;15.98;;;10.25;;
69327;SDS011;56472;52.114;5.492;2023-04-24T07:15:53;19.25;;;9.95;;
69327;SDS011;56472;52.114;5.492;2023-04-24T07:18:22;18.63;;;12.07;;
69327;SDS011;56472;52.114;5.492;2023-04-24T07:20:49;21.77;;;11.40;;
69327;SDS011;56472;52.114;5.492;2023-04-24T07:23:18;22.73;;;10.93;;
69327;SDS011;56472;52.114;5.492;2023-04-24T07:25:46;17.67;;;11.63;;
69327;SDS011;56472;52.114;5.492;2023-04-24T07:28:13;21.33;;;11.77;;
69327;SDS011;56472;52.114;5.492;2023-04-24T07:30:40;25.02;;;10.50;;
69327;SDS011;56472;52.114;5.492;2023-04-24T07:33:10;21.10;;;10.88;;
69327;SDS011;56472;52.114;5.492;2023-04-24T07:35:39;19.58;;;9.63;;
69327;SDS011;56472;52.114;5.492;2023-04-24T07:38:06;22.88;;;10.35;;
69327;SDS011;56472;52.114;5.492;2023-04-24T07:40:33;18.75;;;9.70;;
69327;SDS011;56472;52.114;5.492;2023-04-24T07:43:00;24.52;;;9.93;;
69327;SDS011;56472;52.114;5.492;2023-04-24T07:45:27;17.02;;;10.40;;
69327;SDS011;56472;52.114;5.492;2023-04-24T07:47:54;20.00;;;9.65;;
69327;SDS011;56472;52.114;5.492;2023-04-24T07:50:21;21.60;;;9.63;;
69327;SDS011;56472;52.114;5.492;2023-04-24T07:52:48;17.73;;;10.45;;
69327;SDS011;56472;52.114;5.492;2023-04-24T07:55:15;18.45;;;9.32;;
69327;SDS011;56472;52.114;5.492;2023-04-24T07:57:42;19.50;;;9.38;;
69327;SDS011;56472;52.114;5.492;2023-04-24T08:00:09;15.32;;;8.65;;
69327;SDS011;56472;52.114;5.492;2023-04-24T08:02:36;23.50;;;9.98;;
69327;SDS011;56472;52.114;5.492;2023-04-24T08:05:04;19.75;;;10.10;;
69327;SDS011;56472;52.114;5.492;2023-04-24T08:07:32;16.67;;;8.43;;
69327;SDS011;56472;52.114;5.492;2023-04-24T08:09:58;21.17;;;9.98;;
69327;SDS011;56472;52.114;5.492;2023-04-24T08:12:25;21.75;;;9.68;;
69327;SDS011;56472;52.114;5.492;2023-04-24T08:14:54;22.33;;;10.63;;
69327;SDS011;56472;52.114;5.492;2023-04-24T08:17:21;20.30;;;11.20;;
69327;SDS011;56472;52.114;5.492;2023-04-24T08:19:48;15.35;;;7.53;;
69327;SDS011;56472;52.114;5.492;2023-04-24T08:22:15;15.45;;;7.30;;
69327;SDS011;56472;52.114;5.492;2023-04-24T08:24:42;18.92;;;5.80;;
69327;SDS011;56472;52.114;5.492;2023-04-24T08:27:09;18.10;;;6.72;;
69327;SDS011;56472;52.114;5.492;2023-04-24T08:29:36;21.15;;;7.10;;
69327;SDS011;56472;52.114;5.492;2023-04-24T08:32:03;17.88;;;7.20;;
69327;SDS011;56472;52.114;5.492;2023-04-24T08:34:30;12.52;;;6.35;;
69327;SDS011;56472;52.114;5.492;2023-04-24T08:36:57;17.35;;;7.93;;
69327;SDS011;56472;52.114;5.492;2023-04-24T08:39:24;19.38;;;6.72;;
69327;SDS011;56472;52.114;5.492;2023-04-24T08:41:52;19.92;;;5.53;;
69327;SDS011;56472;52.114;5.492;2023-04-24T08:44:19;19.85;;;5.43;;
69327;SDS011;56472;52.114;5.492;2023-04-24T08:46:47;28.40;;;7.78;;
69327;SDS011;56472;52.114;5.492;2023-04-24T08:49:15;17.90;;;6.63;;
69327;SDS011;56472;52.114;5.492;2023-04-24T08:51:45;18.52;;;6.30;;
69327;SDS011;56472;52.114;5.492;2023-04-24T08:54:13;21.77;;;5.22;;
69327;SDS011;56472;52.114;5.492;2023-04-24T08:56:40;23.55;;;6.50;;
69327;SDS011;56472;52.114;5.492;2023-04-24T08:59:10;21.15;;;3.53;;
69327;SDS011;56472;52.114;5.492;2023-04-24T09:01:38;15.90;;;3.67;;
69327;SDS011;56472;52.114;5.492;2023-04-24T09:04:07;20.23;;;3.35;;
69327;SDS011;56472;52.114;5.492;2023-04-24T09:06:41;17.35;;;2.92;;
69327;SDS011;56472;52.114;5.492;2023-04-24T09:09:09;15.50;;;3.22;;
69327;SDS011;56472;52.114;5.492;2023-04-24T09:11:37;19.08;;;3.80;;
69327;SDS011;56472;52.114;5.492;2023-04-24T09:14:05;11.40;;;3.33;;
69327;SDS011;56472;52.114;5.492;2023-04-24T09:16:33;8.50;;;2.38;;
69327;SDS011;56472;52.114;5.492;2023-04-24T09:19:02;8.93;;;2.70;;
69327;SDS011;56472;52.114;5.492;2023-04-24T09:21:33;11.25;;;2.17;;
69327;SDS011;56472;52.114;5.492;2023-04-24T09:24:01;14.03;;;2.30;;
69327;SDS011;56472;52.114;5.492;2023-04-24T09:26:36;11.75;;;2.20;;
69327;SDS011;56472;52.114;5.492;2023-04-24T09:29:03;14.32;;;2.92;;
69327;SDS011;56472;52.114;5.492;2023-04-24T09:31:31;7.80;;;1.67;;
69327;SDS011;56472;52.114;5.492;2023-04-24T09:33:59;18.38;;;2.90;;
69327;SDS011;56472;52.114;5.492;2023-04-24T09:36:41;8.27;;;2.42;;
69327;SDS011;56472;52.114;5.492;2023-04-24T09:39:09;15.02;;;2.78;;
69327;SDS011;56472;52.114;5.492;2023-04-24T09:41:56;16.13;;;2.72;;
69327;SDS011;56472;52.114;5.492;2023-04-24T09:44:24;12.07;;;2.70;;
69327;SDS011;56472;52.114;5.492;2023-04-24T09:46:53;8.68;;;1.88;;
69327;SDS011;56472;52.114;5.492;2023-04-24T09:49:26;8.85;;;2.25;;
69327;SDS011;56472;52.114;5.492;2023-04-24T09:52:07;6.65;;;2.17;;
69327;SDS011;56472;52.114;5.492;2023-04-24T09:54:36;8.27;;;2.05;;
69327;SDS011;56472;52.114;5.492;2023-04-24T09:57:04;10.77;;;2.63;;
69327;SDS011;56472;52.114;5.492;2023-04-24T09:59:33;21.95;;;2.95;;
69327;SDS011;56472;52.114;5.492;2023-04-24T10:02:02;12.32;;;2.50;;
69327;SDS011;56472;52.114;5.492;2023-04-24T10:04:53;9.75;;;1.85;;
69327;SDS011;56472;52.114;5.492;2023-04-24T10:07:26;4.38;;;1.77;;
69327;SDS011;56472;52.114;5.492;2023-04-24T10:09:54;5.40;;;1.67;;
69327;SDS011;56472;52.114;5.492;2023-04-24T10:12:21;5.90;;;1.90;;
69327;SDS011;56472;52.114;5.492;2023-04-24T10:14:49;7.32;;;2.47;;
69327;SDS011;56472;52.114;5.492;2023-04-24T10:17:16;9.43;;;2.17;;
69327;SDS011;56472;52.114;5.492;2023-04-24T10:19:46;11.90;;;1.88;;
69327;SDS011;56472;52.114;5.492;2023-04-24T10:22:14;6.63;;;1.92;;
69327;SDS011;56472;52.114;5.492;2023-04-24T10:24:43;7.13;;;2.00;;
69327;SDS011;56472;52.114;5.492;2023-04-24T10:27:11;6.63;;;2.40;;
69327;SDS011;56472;52.114;5.492;2023-04-24T10:29:41;4.38;;;1.85;;
69327;SDS011;56472;52.114;5.492;2023-04-24T10:32:10;5.97;;;1.85;;
69327;SDS011;56472;52.114;5.492;2023-04-24T10:34:37;4.10;;;1.92;;
69327;SDS011;56472;52.114;5.492;2023-04-24T10:37:04;4.53;;;1.63;;
69327;SDS011;56472;52.114;5.492;2023-04-24T10:39:31;7.35;;;1.67;;
69327;SDS011;56472;52.114;5.492;2023-04-24T10:41:59;7.80;;;1.58;;
69327;SDS011;56472;52.114;5.492;2023-04-24T10:44:31;4.03;;;1.00;;
69327;SDS011;56472;52.114;5.492;2023-04-24T10:47:02;3.95;;;0.85;;
69327;SDS011;56472;52.114;5.492;2023-04-24T10:49:30;4.57;;;1.00;;
69327;SDS011;56472;52.114;5.492;2023-04-24T10:52:02;3.25;;;1.02;;
69327;SDS011;56472;52.114;5.492;2023-04-24T11:02:46;2.97;;;0.68;;
69327;SDS011;56472;52.114;5.492;2023-04-24T11:05:20;6.80;;;1.50;;
69327;SDS011;56472;52.114;5.492;2023-04-24T11:08:49;0.98;;;0.70;;
69327;SDS011;56472;52.114;5.492;2023-04-24T11:16:28;7.50;;;1.33;;
69327;SDS011;56472;52.114;5.492;2023-04-24T11:21:46;5.30;;;1.08;;
69327;SDS011;56472;52.114;5.492;2023-04-24T11:24:25;5.28;;;0.93;;
69327;SDS011;56472;52.114;5.492;2023-04-24T11:27:11;4.72;;;1.10;;
69327;SDS011;56472;52.114;5.492;2023-04-24T11:29:49;4.37;;;1.13;;
69327;SDS011;56472;52.114;5.492;2023-04-24T11:35:00;6.32;;;0.75;;
69327;SDS011;56472;52.114;5.492;2023-04-24T11:37:29;7.70;;;1.17;;
69327;SDS011;56472;52.114;5.492;2023-04-24T11:40:04;3.50;;;0.82;;
69327;SDS011;56472;52.114;5.492;2023-04-24T11:45:09;5.20;;;1.08;;
69327;SDS011;56472;52.114;5.492;2023-04-24T11:47:38;5.47;;;1.92;;
69327;SDS011;56472;52.114;5.492;2023-04-24T11:50:07;7.78;;;1.08;;
69327;SDS011;56472;52.114;5.492;2023-04-24T11:52:42;4.07;;;1.17;;
69327;SDS011;56472;52.114;5.492;2023-04-24T11:57:44;4.38;;;1.27;;
69327;SDS011;56472;52.114;5.492;2023-04-24T12:02:47;1.30;;;0.50;;
69327;SDS011;56472;52.114;5.492;2023-04-24T12:05:25;0.32;;;0.32;;
69327;SDS011;56472;52.114;5.492;2023-04-24T12:07:53;1.38;;;0.60;;
69327;SDS011;56472;52.114;5.492;2023-04-24T12:10:21;1.80;;;0.60;;
69327;SDS011;56472;52.114;5.492;2023-04-24T12:12:53;0.68;;;0.40;;
69327;SDS011;56472;52.114;5.492;2023-04-24T12:15:22;1.25;;;0.43;;
69327;SDS011;56472;52.114;5.492;2023-04-24T12:17:53;1.52;;;0.50;;
69327;SDS011;56472;52.114;5.492;2023-04-24T12:20:31;2.60;;;0.70;;
69327;SDS011;56472;52.114;5.492;2023-04-24T12:22:59;2.38;;;0.80;;
69327;SDS011;56472;52.114;5.492;2023-04-24T12:28:16;4.68;;;0.80;;
69327;SDS011;56472;52.114;5.492;2023-04-24T12:30:43;3.22;;;0.65;;
69327;SDS011;56472;52.114;5.492;2023-04-24T12:33:18;2.90;;;1.33;;
69327;SDS011;56472;52.114;5.492;2023-04-24T12:35:47;4.68;;;0.98;;
69327;SDS011;56472;52.114;5.492;2023-04-24T12:38:15;8.63;;;2.13;;
69327;SDS011;56472;52.114;5.492;2023-04-24T12:40:44;6.35;;;0.98;;
69327;SDS011;56472;52.114;5.492;2023-04-24T12:43:14;6.38;;;1.10;;
69327;SDS011;56472;52.114;5.492;2023-04-24T12:45:43;7.28;;;1.10;;
69327;SDS011;56472;52.114;5.492;2023-04-24T12:48:13;2.97;;;1.35;;
69327;SDS011;56472;52.114;5.492;2023-04-24T12:50:41;5.53;;;1.23;;
69327;SDS011;56472;52.114;5.492;2023-04-24T12:53:11;7.65;;;1.52;;
69327;SDS011;56472;52.114;5.492;2023-04-24T12:55:38;5.28;;;1.30;;
69327;SDS011;56472;52.114;5.492;2023-04-24T12:58:06;4.03;;;0.93;;
69327;SDS011;56472;52.114;5.492;2023-04-24T13:00:33;8.48;;;1.35;;
69327;SDS011;56472;52.114;5.492;2023-04-24T13:03:01;5.57;;;1.75;;
69327;SDS011;56472;52.114;5.492;2023-04-24T13:05:28;8.48;;;1.70;;
69327;SDS011;56472;52.114;5.492;2023-04-24T13:07:56;6.95;;;1.45;;
69327;SDS011;56472;52.114;5.492;2023-04-24T13:10:23;8.32;;;2.40;;
69327;SDS011;56472;52.114;5.492;2023-04-24T13:12:50;7.32;;;1.70;;
69327;SDS011;56472;52.114;5.492;2023-04-24T13:15:17;8.02;;;1.30;;
69327;SDS011;56472;52.114;5.492;2023-04-24T13:17:44;7.97;;;1.88;;
69327;SDS011;56472;52.114;5.492;2023-04-24T13:20:11;10.93;;;2.50;;
69327;SDS011;56472;52.114;5.492;2023-04-24T13:22:38;10.20;;;2.97;;
69327;SDS011;56472;52.114;5.492;2023-04-24T13:25:05;8.45;;;2.60;;
69327;SDS011;56472;52.114;5.492;2023-04-24T13:27:33;5.82;;;2.17;;
69327;SDS011;56472;52.114;5.492;2023-04-24T13:30:00;11.85;;;2.55;;
69327;SDS011;56472;52.114;5.492;2023-04-24T13:32:27;12.73;;;2.28;;
69327;SDS011;56472;52.114;5.492;2023-04-24T13:34:55;7.68;;;1.63;;
69327;SDS011;56472;52.114;5.492;2023-04-24T13:37:22;10.43;;;2.85;;
69327;SDS011;56472;52.114;5.492;2023-04-24T13:39:49;8.15;;;2.38;;
69327;SDS011;56472;52.114;5.492;2023-04-24T13:42:17;9.55;;;1.90;;
69327;SDS011;56472;52.114;5.492;2023-04-24T13:44:45;7.93;;;1.58;;
69327;SDS011;56472;52.114;5.492;2023-04-24T13:47:11;12.75;;;2.20;;
69327;SDS011;56472;52.114;5.492;2023-04-24T13:49:38;9.70;;;1.98;;
69327;SDS011;56472;52.114;5.492;2023-04-24T13:52:05;10.88;;;2.25;;
69327;SDS011;56472;52.114;5.492;2023-04-24T13:54:33;14.45;;;2.03;;
69327;SDS011;56472;52.114;5.492;2023-04-24T13:57:00;12.23;;;2.67;;
69327;SDS011;56472;52.114;5.492;2023-04-24T13:59:29;4.43;;;1.75;;
69327;SDS011;56472;52.114;5.492;2023-04-24T14:01:56;11.82;;;1.83;;
69327;SDS011;56472;52.114;5.492;2023-04-24T14:04:23;8.32;;;2.00;;
69327;SDS011;56472;52.114;5.492;2023-04-24T14:06:50;11.35;;;2.22;;
69327;SDS011;56472;52.114;5.492;2023-04-24T14:09:17;12.05;;;2.05;;
69327;SDS011;56472;52.114;5.492;2023-04-24T14:11:44;6.55;;;2.05;;
69327;SDS011;56472;52.114;5.492;2023-04-24T14:14:11;2.67;;;1.52;;
69327;SDS011;56472;52.114;5.492;2023-04-24T14:16:38;2.45;;;1.42;;
69327;SDS011;56472;52.114;5.492;2023-04-24T14:19:05;4.43;;;1.58;;
69327;SDS011;56472;52.114;5.492;2023-04-24T14:21:32;12.77;;;2.20;;
69327;SDS011;56472;52.114;5.492;2023-04-24T14:23:59;5.43;;;1.42;;
69327;SDS011;56472;52.114;5.492;2023-04-24T14:26:26;6.05;;;2.20;;
69327;SDS011;56472;52.114;5.492;2023-04-24T14:28:53;8.93;;;1.50;;
69327;SDS011;56472;52.114;5.492;2023-04-24T14:31:39;7.78;;;2.63;;
69327;SDS011;56472;52.114;5.492;2023-04-24T14:34:06;12.77;;;2.40;;
69327;SDS011;56472;52.114;5.492;2023-04-24T14:36:33;17.90;;;3.38;;
69327;SDS011;56472;52.114;5.492;2023-04-24T14:38:59;13.30;;;1.92;;
69327;SDS011;56472;52.114;5.492;2023-04-24T14:41:29;11.55;;;3.20;;
69327;SDS011;56472;52.114;5.492;2023-04-24T14:43:56;11.18;;;2.38;;
69327;SDS011;56472;52.114;5.492;2023-04-24T14:46:23;14.32;;;2.80;;
69327;SDS011;56472;52.114;5.492;2023-04-24T14:48:50;6.80;;;2.42;;
69327;SDS011;56472;52.114;5.492;2023-04-24T14:51:17;8.82;;;3.10;;
69327;SDS011;56472;52.114;5.492;2023-04-24T14:53:44;10.88;;;2.55;;
69327;SDS011;56472;52.114;5.492;2023-04-24T14:56:13;15.93;;;3.45;;
69327;SDS011;56472;52.114;5.492;2023-04-24T14:58:40;13.25;;;3.72;;
69327;SDS011;56472;52.114;5.492;2023-04-24T15:01:07;10.35;;;2.38;;
69327;SDS011;56472;52.114;5.492;2023-04-24T15:03:34;12.13;;;3.10;;
69327;SDS011;56472;52.114;5.492;2023-04-24T15:06:01;6.82;;;2.47;;
69327;SDS011;56472;52.114;5.492;2023-04-24T15:08:28;13.27;;;3.22;;
69327;SDS011;56472;52.114;5.492;2023-04-24T15:10:55;15.52;;;2.78;;
69327;SDS011;56472;52.114;5.492;2023-04-24T15:13:22;9.32;;;2.50;;
69327;SDS011;56472;52.114;5.492;2023-04-24T15:15:49;9.00;;;3.35;;
69327;SDS011;56472;52.114;5.492;2023-04-24T15:18:16;8.63;;;2.17;;
69327;SDS011;56472;52.114;5.492;2023-04-24T15:20:43;5.40;;;2.15;;
69327;SDS011;56472;52.114;5.492;2023-04-24T15:23:10;5.35;;;2.05;;
69327;SDS011;56472;52.114;5.492;2023-04-24T15:25:37;6.13;;;2.20;;
69327;SDS011;56472;52.114;5.492;2023-04-24T15:28:04;8.48;;;2.70;;